Terminal Aerodrome Forecast
Issued by NWS

Home | Current Version | Previous Version | Text Only | Print | Product List | Glossary Off
Versions: 1 2 3 4 5 6 7 8 9 10 11 12 13 14 15 16 17 18 19 20 21 22 23 24 25 26 27 28 29 30

703
FTUS43 KTOP 211731
TAFFOE
TAF
KFOE 211731Z 2118/2218 19007KT P6SM FEW250
     FM212300 10004KT P6SM BKN090
     FM220200 06004KT 5SM BR VCSH OVC040
     FM220900 36009KT 3SM BR SCT011 OVC035
     FM221500 34013KT P6SM SCT100=

USA.gov is the U.S. government's official web portal to all federal, state and local government web resources and services.